createdAt,value
2018-06-15T00:00:33.241Z,2.90
2018-06-15T00:03:37.628Z,2.23
2018-06-15T00:06:41.929Z,2.40
2018-06-15T00:09:46.398Z,2.40
2018-06-15T00:12:50.694Z,2.23
2018-06-15T00:15:55.191Z,2.70
2018-06-15T00:18:59.484Z,2.53
2018-06-15T00:22:03.886Z,2.80
2018-06-15T00:25:08.216Z,3.00
2018-06-15T00:28:12.863Z,2.43
2018-06-15T00:31:17.332Z,2.80
2018-06-15T00:34:21.599Z,3.10
2018-06-15T00:37:27.133Z,2.43
2018-06-15T00:40:32.175Z,2.87
2018-06-15T00:43:36.554Z,2.70
2018-06-15T00:46:41.181Z,3.27
2018-06-15T00:49:45.506Z,3.27
2018-06-15T00:52:49.664Z,3.20
2018-06-15T00:55:54.561Z,3.20
2018-06-15T00:58:58.926Z,3.43
2018-06-15T01:02:03.239Z,2.53
2018-06-15T01:05:07.864Z,2.92
2018-06-15T01:08:12.141Z,2.90
2018-06-15T01:11:16.495Z,3.40
2018-06-15T01:14:20.833Z,3.70
2018-06-15T01:17:25.177Z,3.83
2018-06-15T01:20:29.636Z,4.10
2018-06-15T01:23:34.033Z,3.70
2018-06-15T01:27:02.177Z,3.27
2018-06-15T01:30:07.802Z,2.80
2018-06-15T01:33:12.319Z,3.37
2018-06-15T01:36:16.677Z,2.77
2018-06-15T01:39:21.693Z,2.77
2018-06-15T01:42:26.005Z,3.07
2018-06-15T01:45:30.488Z,3.27
2018-06-15T01:48:35.947Z,2.90
2018-06-15T01:51:40.258Z,2.87
2018-06-15T01:54:44.558Z,2.97
2018-06-15T01:57:48.943Z,2.97
2018-06-15T02:00:53.429Z,2.63
2018-06-15T02:03:57.777Z,3.27
2018-06-15T02:07:02.162Z,2.73
2018-06-15T02:10:06.461Z,2.63
2018-06-15T02:13:10.773Z,3.00
2018-06-15T02:16:15.086Z,2.73
2018-06-15T02:19:19.390Z,2.23
2018-06-15T02:22:23.677Z,2.80
2018-06-15T02:25:27.954Z,2.60
2018-06-15T02:28:35.190Z,2.80
2018-06-15T02:31:39.526Z,3.17
2018-06-15T02:34:43.787Z,2.43
2018-06-15T02:37:48.079Z,2.80
2018-06-15T02:40:52.355Z,2.90
2018-06-15T02:43:56.700Z,2.70
2018-06-15T02:47:00.962Z,3.03
2018-06-15T02:50:05.256Z,2.37
2018-06-15T02:53:09.561Z,2.77
2018-06-15T02:56:13.877Z,3.00
2018-06-15T02:59:18.135Z,3.40
2018-06-15T03:02:22.406Z,2.60
2018-06-15T03:05:26.823Z,2.92
2018-06-15T03:08:31.345Z,2.70
2018-06-15T03:11:35.918Z,2.37
2018-06-15T03:14:40.206Z,2.30
2018-06-15T03:17:44.938Z,2.53
2018-06-15T03:20:49.289Z,2.90
2018-06-15T03:23:53.601Z,2.77
2018-06-15T03:27:19.684Z,2.77
2018-06-15T03:30:23.964Z,3.20
2018-06-15T03:33:29.719Z,2.70
2018-06-15T03:36:37.426Z,2.43
2018-06-15T03:39:42.298Z,3.00
2018-06-15T03:42:46.803Z,2.23
2018-06-15T03:45:51.061Z,2.73
2018-06-15T03:48:55.443Z,2.50
2018-06-15T03:51:59.757Z,2.73
2018-06-15T03:55:04.161Z,3.20
2018-06-15T03:58:08.453Z,2.87
2018-06-15T04:01:13.421Z,2.60
2018-06-15T04:04:17.844Z,2.87
2018-06-15T04:07:22.200Z,2.77
2018-06-15T04:10:26.933Z,2.83
2018-06-15T04:13:31.195Z,2.97
2018-06-15T04:16:42.885Z,2.30
2018-06-15T04:19:48.044Z,3.10
2018-06-15T04:22:53.096Z,2.70
2018-06-15T04:25:57.445Z,2.43
2018-06-15T04:29:01.818Z,2.17
2018-06-15T04:32:06.166Z,2.90
2018-06-15T04:35:10.602Z,2.83
2018-06-15T04:38:15.691Z,2.87
2018-06-15T04:41:20.237Z,2.37
2018-06-15T04:44:25.670Z,2.53
2018-06-15T04:47:29.972Z,2.10
2018-06-15T04:50:34.485Z,2.47
2018-06-15T04:53:38.838Z,1.90
2018-06-15T04:56:43.151Z,2.67
2018-06-15T04:59:47.442Z,2.27
2018-06-15T05:02:52.097Z,1.77
2018-06-15T05:05:56.377Z,2.67
2018-06-15T05:09:00.693Z,2.37
2018-06-15T05:12:09.998Z,2.30
2018-06-15T05:15:14.327Z,2.50
2018-06-15T05:18:19.570Z,2.13
2018-06-15T05:21:23.962Z,2.10
2018-06-15T05:24:28.295Z,2.50
2018-06-15T05:27:32.649Z,2.70
2018-06-15T05:30:36.921Z,1.90
2018-06-15T05:33:41.238Z,2.37
2018-06-15T05:36:45.708Z,2.23
2018-06-15T05:39:50.095Z,2.80
2018-06-15T05:42:54.509Z,2.70
2018-06-15T05:45:58.954Z,2.67
2018-06-15T05:49:03.350Z,3.00
2018-06-15T05:52:07.771Z,2.40
2018-06-15T05:55:12.158Z,2.30
2018-06-15T05:58:16.616Z,2.23
2018-06-15T06:01:22.043Z,2.92
2018-06-15T06:04:26.444Z,2.97
2018-06-15T06:07:31.054Z,2.53
2018-06-15T06:10:35.346Z,2.53
2018-06-15T06:13:39.795Z,3.50
2018-06-15T06:16:44.331Z,2.90
2018-06-15T06:19:48.913Z,2.80
2018-06-15T06:22:53.539Z,2.37
2018-06-15T06:25:57.935Z,2.50
2018-06-15T06:29:02.334Z,2.67
2018-06-15T06:32:06.874Z,2.97
2018-06-15T06:35:11.735Z,2.80
2018-06-15T06:38:16.149Z,2.60
2018-06-15T06:41:21.181Z,2.97
2018-06-15T06:44:25.574Z,3.10
2018-06-15T06:47:29.860Z,2.43
2018-06-15T06:50:34.205Z,2.60
2018-06-15T06:53:38.875Z,2.60
2018-06-15T06:56:43.432Z,3.10
2018-06-15T06:59:47.723Z,3.00
2018-06-15T07:02:52.985Z,3.17
2018-06-15T07:05:57.809Z,2.50
2018-06-15T07:09:02.185Z,2.57
2018-06-15T07:12:06.830Z,2.43
2018-06-15T07:15:11.246Z,2.63
2018-06-15T07:18:16.130Z,3.10
2018-06-15T07:21:20.645Z,2.97
2018-06-15T07:24:24.947Z,3.00
2018-06-15T07:27:29.956Z,2.67
2018-06-15T07:30:34.267Z,2.73
2018-06-15T07:33:38.665Z,2.90
2018-06-15T07:36:43.036Z,2.90
2018-06-15T07:39:48.147Z,2.67
2018-06-15T07:42:53.124Z,2.60
2018-06-15T07:45:57.449Z,3.23
2018-06-15T07:49:02.006Z,2.87
2018-06-15T07:52:06.355Z,3.27
2018-06-15T07:55:10.712Z,2.80
2018-06-15T07:58:15.210Z,3.07
2018-06-15T08:01:19.531Z,3.33
2018-06-15T08:04:23.909Z,2.87
2018-06-15T08:07:28.250Z,2.73
2018-06-15T08:10:32.642Z,2.27
2018-06-15T08:13:37.010Z,2.70
2018-06-15T08:16:41.303Z,2.70
2018-06-15T08:19:45.594Z,2.70
2018-06-15T08:22:49.879Z,2.67
2018-06-15T08:25:54.805Z,3.20
2018-06-15T08:28:59.178Z,3.83
2018-06-15T08:32:04.044Z,3.00
2018-06-15T08:35:08.415Z,3.07
2018-06-15T08:38:12.763Z,3.60
2018-06-15T08:41:17.102Z,3.80
2018-06-15T08:44:21.400Z,3.50
2018-06-15T08:47:25.725Z,4.33
2018-06-15T08:50:30.069Z,3.63
2018-06-15T08:53:34.958Z,3.30
2018-06-15T08:56:39.275Z,3.97
2018-06-15T08:59:44.047Z,4.10
2018-06-15T09:02:49.435Z,3.20
2018-06-15T09:05:53.711Z,4.00
2018-06-15T09:08:58.638Z,3.00
2018-06-15T09:12:02.962Z,3.50
2018-06-15T09:15:07.354Z,3.90
2018-06-15T09:18:12.348Z,3.60
2018-06-15T09:21:16.597Z,2.77
2018-06-15T09:24:21.014Z,3.23
2018-06-15T09:27:25.069Z,2.50
2018-06-15T09:30:29.494Z,2.77
2018-06-15T09:33:34.120Z,3.30
2018-06-15T09:36:38.593Z,2.50
2018-06-15T09:39:42.950Z,2.63
2018-06-15T09:42:47.246Z,2.63
2018-06-15T09:45:52.907Z,2.70
2018-06-15T09:48:57.280Z,2.90
2018-06-15T09:52:01.577Z,2.30
2018-06-15T09:55:05.964Z,2.63
2018-06-15T09:58:11.003Z,2.33
2018-06-15T10:01:15.290Z,2.20
2018-06-15T10:04:19.611Z,2.07
2018-06-15T10:07:23.882Z,2.07
2018-06-15T10:10:28.234Z,2.12
2018-06-15T10:13:32.633Z,2.40
2018-06-15T10:16:37.163Z,2.23
2018-06-15T10:19:41.550Z,2.00
2018-06-15T10:22:52.711Z,2.40
2018-06-15T10:25:57.313Z,2.30
2018-06-15T10:29:01.585Z,2.50
2018-06-15T10:32:05.791Z,2.80
2018-06-15T10:35:10.063Z,2.47
2018-06-15T10:38:14.354Z,2.50
2018-06-15T10:41:18.771Z,2.10
2018-06-15T10:44:23.471Z,2.40
2018-06-15T10:47:27.742Z,2.53
2018-06-15T10:50:32.023Z,1.87
2018-06-15T10:53:36.637Z,2.57
2018-06-15T10:56:41.010Z,2.93
2018-06-15T10:59:45.034Z,2.40
2018-06-15T11:02:49.314Z,2.60
2018-06-15T11:05:53.967Z,2.80
2018-06-15T11:08:58.293Z,3.03
2018-06-15T11:12:03.065Z,3.50
2018-06-15T11:15:07.352Z,2.47
2018-06-15T11:18:19.584Z,2.70
2018-06-15T11:21:27.587Z,2.87
2018-06-15T11:24:33.940Z,2.90
2018-06-15T11:27:38.747Z,3.10
2018-06-15T11:30:43.120Z,2.90
2018-06-15T11:33:47.609Z,2.63
2018-06-15T11:36:51.924Z,2.43
2018-06-15T11:39:56.381Z,2.60
2018-06-15T11:43:01.825Z,2.30
2018-06-15T11:46:06.484Z,2.63
2018-06-15T11:49:10.855Z,2.10
2018-06-15T11:52:15.813Z,2.63
2018-06-15T11:55:20.170Z,2.27
2018-06-15T11:58:24.448Z,2.30
2018-06-15T12:01:28.973Z,3.23
2018-06-15T12:04:34.279Z,3.57
2018-06-15T12:07:38.622Z,3.43
2018-06-15T12:10:44.090Z,2.80
2018-06-15T12:13:54.176Z,2.67
2018-06-15T12:16:59.882Z,3.22
2018-06-15T12:20:07.219Z,3.27
2018-06-15T12:23:14.357Z,2.83
2018-06-15T12:26:18.665Z,2.67
2018-06-15T12:29:23.929Z,3.33
2018-06-15T12:32:29.569Z,2.93
2018-06-15T12:35:34.233Z,3.80
2018-06-15T12:38:39.035Z,3.43
2018-06-15T12:41:43.417Z,3.10
2018-06-15T12:44:47.811Z,3.20
2018-06-15T12:47:52.192Z,2.57
2018-06-15T12:50:56.645Z,3.30
2018-06-15T12:54:01.599Z,3.30
2018-06-15T12:57:06.461Z,2.77
2018-06-15T13:00:11.035Z,3.27
2018-06-15T13:03:15.376Z,3.20
2018-06-15T13:06:19.777Z,3.07
2018-06-15T13:09:24.517Z,3.00
2018-06-15T13:12:29.369Z,3.43
2018-06-15T13:15:33.739Z,2.90
2018-06-15T13:18:38.023Z,2.90
2018-06-15T13:21:42.132Z,3.17
2018-06-15T13:24:46.873Z,3.03
2018-06-15T13:27:51.251Z,3.03
2018-06-15T13:30:55.710Z,2.53
2018-06-15T13:34:00.137Z,2.77
2018-06-15T13:37:05.440Z,2.90
2018-06-15T13:40:10.212Z,3.50
2018-06-15T13:43:14.424Z,3.00
2018-06-15T13:46:27.913Z,2.93
2018-06-15T13:49:33.863Z,3.17
2018-06-15T13:52:39.199Z,2.80
2018-06-15T13:55:43.696Z,3.22
2018-06-15T13:58:50.235Z,2.80
2018-06-15T14:01:55.538Z,3.00
2018-06-15T14:04:59.896Z,3.30
2018-06-15T14:08:04.709Z,3.03
2018-06-15T14:11:09.824Z,3.17
2018-06-15T14:14:14.146Z,3.13
2018-06-15T14:17:18.614Z,3.53
2018-06-15T14:20:23.227Z,2.73
2018-06-15T14:23:28.554Z,2.70
2018-06-15T14:26:33.165Z,3.50
2018-06-15T14:29:39.155Z,3.20
2018-06-15T14:32:44.850Z,2.63
2018-06-15T14:35:49.387Z,3.33
2018-06-15T14:38:53.995Z,2.97
2018-06-15T14:41:58.577Z,3.40
2018-06-15T14:45:03.132Z,3.50
2018-06-15T14:48:07.551Z,3.23
2018-06-15T14:51:11.934Z,3.33
2018-06-15T14:54:16.951Z,2.87
2018-06-15T14:57:21.630Z,3.20
2018-06-15T15:00:25.959Z,3.33
2018-06-15T15:03:30.436Z,3.27
2018-06-15T15:06:35.231Z,3.75
2018-06-15T15:09:39.690Z,3.30
2018-06-15T15:12:44.167Z,3.23
2018-06-15T15:15:50.738Z,3.20
2018-06-15T15:18:56.814Z,3.53
2018-06-15T15:22:01.303Z,3.33
2018-06-15T15:25:05.639Z,4.00
2018-06-15T15:28:10.279Z,3.20
2018-06-15T15:31:14.625Z,3.57
2018-06-15T15:34:18.916Z,3.50
2018-06-15T15:37:24.429Z,3.00
2018-06-15T15:40:28.785Z,3.57
2018-06-15T15:43:33.883Z,3.20
2018-06-15T15:46:38.226Z,3.60
2018-06-15T15:49:42.534Z,3.63
2018-06-15T15:52:46.680Z,3.27
2018-06-15T15:55:51.109Z,3.40
2018-06-15T15:58:55.672Z,3.70
2018-06-15T16:02:00.605Z,3.37
2018-06-15T16:05:05.192Z,3.50
2018-06-15T16:08:09.631Z,3.23
2018-06-15T16:11:14.354Z,3.27
2018-06-15T16:14:19.057Z,3.30
2018-06-15T16:17:23.574Z,3.10
2018-06-15T16:20:28.394Z,3.33
2018-06-15T16:23:34.061Z,3.10
2018-06-15T16:26:38.710Z,3.13
2018-06-15T16:29:43.491Z,3.37
2018-06-15T16:32:48.442Z,3.00
2018-06-15T16:35:53.097Z,2.70
2018-06-15T16:38:58.384Z,2.67
2018-06-15T16:42:02.972Z,3.33
2018-06-15T16:45:07.530Z,2.83
2018-06-15T16:48:11.993Z,2.70
2018-06-15T16:51:16.517Z,3.23
2018-06-15T16:54:21.990Z,2.87
2018-06-15T16:57:26.265Z,2.17
2018-06-15T17:00:34.193Z,2.20
2018-06-15T17:03:38.737Z,2.20
2018-06-15T17:06:43.271Z,2.10
2018-06-15T17:09:47.712Z,1.70
2018-06-15T17:12:52.182Z,2.10
2018-06-15T17:15:56.573Z,2.40
2018-06-15T17:19:01.115Z,1.93
2018-06-15T17:22:05.225Z,2.30
2018-06-15T17:25:09.746Z,2.07
2018-06-15T17:28:14.364Z,2.20
2018-06-15T17:31:19.027Z,2.50
2018-06-15T17:34:23.339Z,2.90
2018-06-15T17:37:27.722Z,2.10
2018-06-15T17:40:32.462Z,1.73
2018-06-15T17:43:37.172Z,2.27
2018-06-15T17:46:41.794Z,1.73
2018-06-15T17:49:46.273Z,1.90
2018-06-15T17:52:50.922Z,1.80
2018-06-15T17:55:55.367Z,2.40
2018-06-15T17:58:59.943Z,1.80
2018-06-15T18:02:04.424Z,1.90
2018-06-15T18:05:08.940Z,1.70
2018-06-15T18:08:13.351Z,2.10
2018-06-15T18:11:17.861Z,2.13
2018-06-15T18:14:22.213Z,1.87
2018-06-15T18:17:26.750Z,1.97
2018-06-15T18:20:31.262Z,1.53
2018-06-15T18:23:36.306Z,1.67
2018-06-15T18:26:40.663Z,1.67
2018-06-15T18:29:45.076Z,1.30
2018-06-15T18:32:49.417Z,1.63
2018-06-15T18:35:53.973Z,1.53
2018-06-15T18:38:58.281Z,1.70
2018-06-15T18:42:02.681Z,1.60
2018-06-15T18:45:07.344Z,1.40
2018-06-15T18:48:13.520Z,1.77
2018-06-15T18:51:18.218Z,2.53
2018-06-15T18:54:22.776Z,5.63
2018-06-15T18:57:27.286Z,9.20
2018-06-15T19:00:32.061Z,8.40
2018-06-15T19:03:37.365Z,7.70
2018-06-15T19:06:42.117Z,4.47
2018-06-15T19:09:47.189Z,2.90
2018-06-15T19:12:51.641Z,2.67
2018-06-15T19:15:56.190Z,2.80
2018-06-15T19:19:00.766Z,2.43
2018-06-15T19:22:05.401Z,2.50
2018-06-15T19:25:10.024Z,2.50
2018-06-15T19:28:14.460Z,2.33
2018-06-15T19:31:19.268Z,2.30
2018-06-15T19:34:23.735Z,2.70
2018-06-15T19:37:28.267Z,2.50
2018-06-15T19:40:32.757Z,1.80
2018-06-15T19:43:37.370Z,2.60
2018-06-15T19:46:41.808Z,1.80
2018-06-15T19:49:46.523Z,3.13
2018-06-15T19:52:52.274Z,2.63
2018-06-15T19:55:57.034Z,2.70
2018-06-15T19:59:01.403Z,3.43
2018-06-15T20:02:06.042Z,4.17
2018-06-15T20:05:10.656Z,3.23
2018-06-15T20:08:15.082Z,3.50
2018-06-15T20:11:19.539Z,2.87
2018-06-15T20:14:23.899Z,3.80
2018-06-15T20:17:29.252Z,3.63
2018-06-15T20:20:33.926Z,3.07
2018-06-15T20:23:38.324Z,3.77
2018-06-15T20:26:42.666Z,3.83
2018-06-15T20:29:48.857Z,3.63
2018-06-15T20:32:53.478Z,3.67
2018-06-15T20:35:57.987Z,3.00
2018-06-15T20:39:02.560Z,2.63
2018-06-15T20:42:07.283Z,2.67
2018-06-15T20:45:11.732Z,2.97
2018-06-15T20:48:16.358Z,2.97
2018-06-15T20:51:20.487Z,2.80
2018-06-15T20:54:24.938Z,2.73
2018-06-15T20:57:30.046Z,2.90
2018-06-15T21:00:34.504Z,3.87
2018-06-15T21:03:40.726Z,3.10
2018-06-15T21:06:45.331Z,3.40
2018-06-15T21:09:49.990Z,3.40
2018-06-15T21:12:54.566Z,3.80
2018-06-15T21:16:00.252Z,3.20
2018-06-15T21:19:05.071Z,3.30
2018-06-15T21:22:09.870Z,3.30
2018-06-15T21:25:14.419Z,3.73
2018-06-15T21:28:19.714Z,3.23
2018-06-15T21:31:25.451Z,3.20
2018-06-15T21:34:30.847Z,3.20
2018-06-15T21:37:45.070Z,3.10
2018-06-15T21:40:50.967Z,2.80
2018-06-15T21:43:56.223Z,2.90
2018-06-15T21:47:03.181Z,2.97
2018-06-15T21:50:07.902Z,3.17
2018-06-15T21:53:13.796Z,2.90
2018-06-15T21:56:18.895Z,3.80
2018-06-15T21:59:23.349Z,3.63
2018-06-15T22:02:27.819Z,4.33
2018-06-15T22:05:33.977Z,3.98
2018-06-15T22:08:38.313Z,4.00
2018-06-15T22:11:42.837Z,3.13
2018-06-15T22:14:47.542Z,3.30
2018-06-15T22:17:52.052Z,3.73
2018-06-15T22:20:56.453Z,3.57
2018-06-15T22:24:00.850Z,3.40
2018-06-15T22:27:05.880Z,3.70
2018-06-15T22:30:10.186Z,4.10
2018-06-15T22:33:14.446Z,3.50
2018-06-15T22:36:18.977Z,3.90
2018-06-15T22:39:23.245Z,3.43
2018-06-15T22:42:27.503Z,3.93
2018-06-15T22:45:32.775Z,3.80
2018-06-15T22:48:37.154Z,4.47
2018-06-15T22:51:43.053Z,4.30
2018-06-15T22:54:47.964Z,4.50
2018-06-15T22:57:52.285Z,3.67
2018-06-15T23:00:56.606Z,4.37
2018-06-15T23:04:01.629Z,4.97
2018-06-15T23:07:05.998Z,4.57
2018-06-15T23:10:10.338Z,4.73
2018-06-15T23:13:15.084Z,4.83
2018-06-15T23:16:20.121Z,5.47
2018-06-15T23:19:24.388Z,5.17
2018-06-15T23:22:28.653Z,5.17
2018-06-15T23:25:33.823Z,4.60
2018-06-15T23:28:38.103Z,5.17
2018-06-15T23:31:42.984Z,5.03
2018-06-15T23:34:47.865Z,5.10
2018-06-15T23:37:52.158Z,4.63
2018-06-15T23:40:56.438Z,5.20
2018-06-15T23:44:01.508Z,5.47
2018-06-15T23:47:05.843Z,5.70
2018-06-15T23:50:10.639Z,5.10
2018-06-15T23:53:15.054Z,5.57
2018-06-15T23:56:19.711Z,5.47
2018-06-15T23:59:24.682Z,5.47
